Addison Township, MI

10:59 PM EST on January 24, 2015 (GMT -0500)
Selfridge Angb | Change Station
CLOSE
Current Station
Airport
Location: Mt. Clemens,
Elevation: 581 ft
Nearby Weather Stations

Elev 581 ft 42.61 °N, 82.84 °W | Updated 1 hour ago

Overcast
Overcast
36 °F
Feels Like 30 °F
N
8
Wind Variable Wind from West

Today
High -- | Low -- °F
--% Chance of Precip.
Yesterday
High -- | Low -- °F
Precip. -- in
7:54 AM 5:34 PM
Waxing Crescent, 28% visible
Pressure 29.65 in
Visibility 10.0 miles
Clouds Scattered Clouds 3400 ft
Scattered Clouds 4200 ft
Mostly Cloudy 6000 ft
Mostly Cloudy 8000 ft
Overcast 9000 ft
Windchill 30 °F
Dew Point 31 °F
Humidity 81%
Rainfall 0.00 in
Snow Depth Not available.
UV 0 out of 12
Pollen .10 out of 12
Air Quality Not available.
Flu Activity Not available.
METAR KMTC 250258Z AUTO 26007KT 10SM SCT034 SCT042 BKN060 BKN080 OVC090 03/00 A2962 RMK AO2 SLP040 T00251004 52018 $

More Conditions Fewer Conditions

Pressure 29.65 in
Visibility 10.0 miles
Clouds Scattered Clouds 3400 ft
Scattered Clouds 4200 ft
Mostly Cloudy 6000 ft
Mostly Cloudy 8000 ft
Overcast 9000 ft
Windchill 30 °F
Dew Point 31 °F
Humidity 81%
Rainfall 0.00 in
Snow Depth Not available.
UV 0 out of 12
Pollen .10 out of 12
Air Quality Not available.
Flu Activity Not available.
METAR KMTC 250258Z AUTO 26007KT 10SM SCT034 SCT042 BKN060 BKN080 OVC090 03/00 A2962 RMK AO2 SLP040 T00251004 52018 $

More Conditions Fewer Conditions

10-Day Weather Forecast

Almanac

Astronomy

Jan. 24, 2015 Rise Set
Actual Time
Civil Twilight
Nautical Twilight
Astronomical Twilight
Moon
Length of Visible Light
Length of Day
Tomorrow will be .
, % of the Moon is Illuminated

Today's Extremes

State Highs State Lows

Community

WunderPhotos

Upload Photos

1,789,825 photos uploaded!

WunderBlogs® & News

Nearby

Air Quality

  Air Quality AQ Index Pollutant
Not available.

Snow Depth

Station Depth Elevation

Earthquake Activity

City Distance Mag. Time & Date
Minimum magnitude displayed is 2.5.

Coastal Water Temperatures

Place Temperature

Nearby Weather Stations